createdAt,value
2019-04-16T00:00:11.809Z,97987.92
2019-04-16T00:02:51.400Z,97990.80
2019-04-16T00:05:30.609Z,97983.07
2019-04-16T00:08:28.293Z,97976.66
2019-04-16T00:11:06.923Z,97973.23
2019-04-16T00:13:56.095Z,97974.59
2019-04-16T00:16:28.786Z,97971.38
2019-04-16T00:19:04.435Z,97970.12
2019-04-16T00:21:51.800Z,97969.25
2019-04-16T00:24:35.564Z,97960.73
2019-04-16T00:27:07.522Z,97962.11
2019-04-16T00:29:39.935Z,97957.55
2019-04-16T00:32:26.141Z,97957.98
2019-04-16T00:34:58.192Z,97952.70
2019-04-16T00:37:30.247Z,97953.28
2019-04-16T00:40:02.485Z,97952.53
2019-04-16T00:42:34.536Z,97948.53
2019-04-16T00:45:08.169Z,97949.48
2019-04-16T00:47:40.129Z,97946.54
2019-04-16T00:50:12.762Z,97951.08
2019-04-16T00:52:44.711Z,97950.97
2019-04-16T00:55:16.740Z,97950.73
2019-04-16T00:57:50.072Z,97949.09
2019-04-16T01:00:22.171Z,97951.05
2019-04-16T01:02:54.120Z,97953.16
2019-04-16T01:05:26.079Z,97957.28
2019-04-16T01:07:58.025Z,97953.36
2019-04-16T01:10:30.823Z,97949.60
2019-04-16T01:13:03.036Z,97948.91
2019-04-16T01:15:35.602Z,97949.20
2019-04-16T01:18:08.887Z,97954.36
2019-04-16T01:20:43.311Z,97956.23
2019-04-16T01:23:17.793Z,97953.19
2019-04-16T01:25:49.474Z,97952.70
2019-04-16T01:28:23.826Z,97942.81
2019-04-16T01:31:14.602Z,97944.70
2019-04-16T01:34:05.700Z,97945.21
2019-04-16T01:36:54.987Z,97941.75
2019-04-16T01:39:28.628Z,97937.84
2019-04-16T01:42:00.572Z,97940.06
2019-04-16T01:44:32.526Z,97940.64
2019-04-16T01:47:05.331Z,97940.52
2019-04-16T01:49:39.321Z,97943.80
2019-04-16T01:52:11.604Z,97946.31
2019-04-16T01:54:43.589Z,97951.09
2019-04-16T01:57:15.586Z,97952.73
2019-04-16T01:59:47.966Z,97950.41
2019-04-16T02:02:19.936Z,97954.42
2019-04-16T02:04:52.818Z,97961.59
2019-04-16T02:07:27.720Z,97956.95
2019-04-16T02:09:58.511Z,97959.20
2019-04-16T02:12:30.458Z,97956.64
2019-04-16T02:15:02.663Z,97956.76
2019-04-16T02:17:34.674Z,97963.11
2019-04-16T02:20:07.606Z,97965.06
2019-04-16T02:22:42.284Z,97961.02
2019-04-16T02:25:13.380Z,97958.66
2019-04-16T02:27:45.335Z,97956.76
2019-04-16T02:30:17.615Z,97965.99
2019-04-16T02:32:50.006Z,97965.27
2019-04-16T02:35:22.002Z,97962.25
2019-04-16T02:37:54.712Z,97959.47
2019-04-16T02:40:26.679Z,97965.99
2019-04-16T02:43:04.236Z,97958.66
2019-04-16T02:45:32.310Z,97964.55
2019-04-16T02:48:04.279Z,97961.53
2019-04-16T02:51:06.015Z,97964.47
2019-04-16T02:54:02.586Z,97962.66
2019-04-16T02:56:53.084Z,97962.22
2019-04-16T02:59:31.239Z,97966.02
2019-04-16T03:02:13.247Z,97963.65
2019-04-16T03:04:52.997Z,97961.98
2019-04-16T03:07:24.972Z,97958.97
2019-04-16T03:10:01.346Z,97961.72
2019-04-16T03:12:31.651Z,97967.45
2019-04-16T03:15:03.648Z,97968.02
2019-04-16T03:17:42.945Z,97962.73
2019-04-16T03:20:15.894Z,97959.81
2019-04-16T03:22:47.854Z,97962.52
2019-04-16T03:25:19.830Z,97964.94
2019-04-16T03:27:54.478Z,97964.05
2019-04-16T03:30:25.788Z,97959.19
2019-04-16T03:32:57.793Z,97962.93
2019-04-16T03:35:29.756Z,97962.53
2019-04-16T03:38:05.311Z,97962.29
2019-04-16T03:40:35.383Z,97961.73
2019-04-16T03:43:08.620Z,97959.31
2019-04-16T03:45:41.172Z,97958.66
2019-04-16T03:48:13.406Z,97953.98
2019-04-16T03:50:45.784Z,97949.52
2019-04-16T03:53:18.446Z,97949.69
2019-04-16T03:55:50.879Z,97956.14
2019-04-16T03:58:22.835Z,97953.34
2019-04-16T04:00:54.786Z,97950.73
2019-04-16T04:03:26.923Z,97955.15
2019-04-16T04:05:58.903Z,97953.61
2019-04-16T04:08:30.868Z,97948.31
2019-04-16T04:11:02.993Z,97950.31
2019-04-16T04:13:34.966Z,97949.00
2019-04-16T04:16:07.406Z,97950.38
2019-04-16T04:18:42.928Z,97946.36
2019-04-16T04:21:13.879Z,97947.25
2019-04-16T04:23:45.846Z,97957.29
2019-04-16T04:26:17.900Z,97950.69
2019-04-16T04:28:51.591Z,97956.36
2019-04-16T04:31:23.827Z,97956.30
2019-04-16T04:33:56.229Z,97957.25
2019-04-16T04:36:28.612Z,97958.52
2019-04-16T04:39:00.900Z,97966.59
2019-04-16T04:41:33.273Z,97966.98
2019-04-16T04:44:05.425Z,97974.64
2019-04-16T04:46:37.361Z,97968.68
2019-04-16T04:49:09.659Z,97970.94
2019-04-16T04:51:43.505Z,97971.18
2019-04-16T04:54:16.195Z,97974.05
2019-04-16T04:56:48.900Z,97975.96
2019-04-16T04:59:21.292Z,97977.08
2019-04-16T05:01:53.645Z,97981.17
2019-04-16T05:04:31.866Z,97979.72
2019-04-16T05:07:05.529Z,97986.19
2019-04-16T05:09:38.127Z,97978.68
2019-04-16T05:12:10.413Z,97981.72
2019-04-16T05:14:58.511Z,97982.19
2019-04-16T05:17:30.466Z,97985.11
2019-04-16T05:20:03.122Z,97987.41
2019-04-16T05:22:35.710Z,97991.95
2019-04-16T05:25:08.395Z,97991.58
2019-04-16T05:27:41.524Z,97989.04
2019-04-16T05:30:13.885Z,97988.78
2019-04-16T05:32:45.864Z,97991.06
2019-04-16T05:35:17.819Z,97986.64
2019-04-16T05:37:51.551Z,97993.28
2019-04-16T05:40:24.012Z,97987.50
2019-04-16T05:42:58.951Z,97988.47
2019-04-16T05:45:30.043Z,97991.84
2019-04-16T05:48:02.007Z,97987.59
2019-04-16T05:50:33.970Z,97993.80
2019-04-16T05:53:08.243Z,97996.45
2019-04-16T05:56:00.657Z,97992.39
2019-04-16T05:58:33.154Z,97989.17
2019-04-16T06:01:23.991Z,97985.69
2019-04-16T06:03:55.937Z,97983.09
2019-04-16T06:06:28.757Z,97981.09
2019-04-16T06:09:01.541Z,97974.29
2019-04-16T06:11:36.507Z,97977.30
2019-04-16T06:14:26.149Z,97978.63
2019-04-16T06:17:15.550Z,97981.31
2019-04-16T06:20:05.294Z,97983.23
2019-04-16T06:23:00.662Z,97984.34
2019-04-16T06:25:41.024Z,97980.80
2019-04-16T06:28:20.224Z,97980.11
2019-04-16T06:31:16.851Z,97979.38
2019-04-16T06:34:14.224Z,97982.45
2019-04-16T06:37:11.152Z,97977.20
2019-04-16T06:40:05.269Z,97976.11
2019-04-16T06:42:51.511Z,97974.70
2019-04-16T06:45:36.512Z,97971.91
2019-04-16T06:48:12.744Z,97973.86
2019-04-16T06:51:00.570Z,97976.02
2019-04-16T06:53:54.003Z,97970.08
2019-04-16T06:56:57.352Z,97972.75
2019-04-16T06:59:43.634Z,97977.41
2019-04-16T07:02:37.578Z,97970.13
2019-04-16T07:05:24.952Z,97967.48
2019-04-16T07:08:19.889Z,97960.25
2019-04-16T07:10:57.346Z,97963.69
2019-04-16T07:13:30.691Z,97963.52
2019-04-16T07:16:04.988Z,97962.59
2019-04-16T07:18:39.337Z,97964.32
2019-04-16T07:21:14.522Z,97953.16
2019-04-16T07:23:46.898Z,97951.84
2019-04-16T07:26:19.664Z,97947.07
2019-04-16T07:29:01.014Z,97947.66
2019-04-16T07:31:40.162Z,97954.50
2019-04-16T07:34:33.600Z,97950.38
2019-04-16T07:37:27.618Z,97950.92
2019-04-16T07:40:27.305Z,97949.40
2019-04-16T07:43:18.458Z,97951.66
2019-04-16T07:45:55.117Z,97953.25
2019-04-16T07:48:33.289Z,97952.75
2019-04-16T07:51:24.588Z,97952.19
2019-04-16T07:54:22.335Z,97956.92
2019-04-16T07:56:56.175Z,97956.58
2019-04-16T07:59:32.266Z,97955.19
2019-04-16T08:02:03.407Z,97959.28
2019-04-16T08:04:36.447Z,97956.35
2019-04-16T08:07:08.651Z,97949.75
2019-04-16T08:09:40.724Z,97953.34
2019-04-16T08:12:28.996Z,97956.76
2019-04-16T08:14:46.492Z,97949.42
2019-04-16T08:17:19.359Z,97946.38
2019-04-16T08:19:51.443Z,97951.88
2019-04-16T08:22:23.617Z,97944.77
2019-04-16T08:25:03.053Z,97947.75
2019-04-16T08:27:33.443Z,97943.87
2019-04-16T08:30:07.924Z,97949.16
2019-04-16T08:32:40.052Z,97942.13
2019-04-16T08:35:12.767Z,97947.95
2019-04-16T08:37:49.332Z,97945.70
2019-04-16T08:40:18.692Z,97950.59
2019-04-16T08:42:50.820Z,97948.05
2019-04-16T08:45:23.328Z,97947.92
2019-04-16T08:47:56.283Z,97952.14
2019-04-16T08:50:28.689Z,97949.35
2019-04-16T08:53:01.752Z,97952.92
2019-04-16T08:55:34.219Z,97952.23
2019-04-16T08:58:07.538Z,97951.25
2019-04-16T09:00:40.578Z,97946.68
2019-04-16T09:03:15.400Z,97943.67
2019-04-16T09:05:47.069Z,97950.09
2019-04-16T09:08:28.451Z,97948.61
2019-04-16T09:11:03.436Z,97944.33
2019-04-16T09:13:41.213Z,97946.23
2019-04-16T09:16:13.359Z,97946.46
2019-04-16T09:19:13.393Z,97944.83
2019-04-16T09:21:45.486Z,97936.13
2019-04-16T09:25:04.132Z,97931.49
2019-04-16T09:27:28.645Z,97932.52
2019-04-16T09:30:21.261Z,97929.09
2019-04-16T09:33:07.400Z,97928.84
2019-04-16T09:35:50.523Z,97921.33
2019-04-16T09:38:35.675Z,97926.05
2019-04-16T09:41:13.225Z,97919.10
2019-04-16T09:43:48.550Z,97915.71
2019-04-16T09:46:44.674Z,97913.55
2019-04-16T09:48:55.134Z,97900.75
2019-04-16T09:51:27.700Z,97901.27
2019-04-16T09:54:00.366Z,97897.37
2019-04-16T09:56:33.636Z,97898.47
2019-04-16T09:59:26.954Z,97895.36
2019-04-16T10:02:04.736Z,97893.37
2019-04-16T10:04:37.359Z,97893.59
2019-04-16T10:07:09.908Z,97892.33
2019-04-16T10:09:42.745Z,97895.62
2019-04-16T10:12:15.143Z,97891.63
2019-04-16T10:14:47.512Z,97898.95
2019-04-16T10:17:19.636Z,97893.91
2019-04-16T10:19:51.699Z,97895.70
2019-04-16T10:22:24.165Z,97890.05
2019-04-16T10:25:15.369Z,97887.06
2019-04-16T10:27:53.177Z,97894.73
2019-04-16T10:30:43.684Z,97891.19
2019-04-16T10:33:17.045Z,97887.38
2019-04-16T10:35:49.578Z,97887.95
2019-04-16T10:38:46.773Z,97885.35
2019-04-16T10:41:38.070Z,97884.25
2019-04-16T10:44:41.780Z,97880.84
2019-04-16T10:47:31.381Z,97876.94
2019-04-16T10:50:15.787Z,97871.89
2019-04-16T10:53:08.892Z,97857.11
2019-04-16T10:55:58.904Z,97860.02
2019-04-16T10:58:39.145Z,97848.78
2019-04-16T11:01:38.992Z,97846.04
2019-04-16T11:04:31.211Z,97849.43
2019-04-16T11:07:09.462Z,97845.37
2019-04-16T11:09:42.565Z,97846.63
2019-04-16T11:12:15.495Z,97843.84
2019-04-16T11:14:48.156Z,97846.39
2019-04-16T11:17:21.988Z,97845.47
2019-04-16T11:19:54.560Z,97852.78
2019-04-16T11:22:26.971Z,97845.48
2019-04-16T11:25:00.233Z,97837.31
2019-04-16T11:27:32.703Z,97834.24
2019-04-16T11:30:07.522Z,97830.47
2019-04-16T11:32:40.322Z,97832.88
2019-04-16T11:35:16.688Z,97835.16
2019-04-16T11:37:47.031Z,97835.11
2019-04-16T11:40:19.567Z,97832.40
2019-04-16T11:42:51.643Z,97830.61
2019-04-16T11:45:24.226Z,97828.56
2019-04-16T11:47:58.506Z,97828.69
2019-04-16T11:50:30.995Z,97827.78
2019-04-16T11:53:03.390Z,97824.52
2019-04-16T11:55:35.834Z,97833.40
2019-04-16T11:58:17.487Z,97831.05
2019-04-16T12:00:55.955Z,97832.17
2019-04-16T12:03:36.572Z,97832.97
2019-04-16T12:06:28.252Z,97815.16
2019-04-16T12:09:32.931Z,97820.87
2019-04-16T12:12:32.911Z,97819.52
2019-04-16T12:15:24.198Z,97817.03
2019-04-16T12:18:04.697Z,97814.70
2019-04-16T12:21:07.455Z,97807.16
2019-04-16T12:23:50.091Z,97808.27
2019-04-16T12:26:36.727Z,97812.20
2019-04-16T12:29:30.303Z,97804.81
2019-04-16T12:32:19.888Z,97800.70
2019-04-16T12:35:10.291Z,97809.37
2019-04-16T12:37:59.814Z,97807.53
2019-04-16T12:40:44.800Z,97800.31
2019-04-16T12:43:22.544Z,97805.65
2019-04-16T12:46:12.758Z,97794.66
2019-04-16T12:49:06.735Z,97797.77
2019-04-16T12:51:55.790Z,97794.08
2019-04-16T12:54:50.028Z,97791.54
2019-04-16T12:57:29.370Z,97794.34
2019-04-16T13:00:09.148Z,97794.46
2019-04-16T13:03:16.371Z,97785.77
2019-04-16T13:06:04.627Z,97781.86
2019-04-16T13:08:43.545Z,97779.69
2019-04-16T13:11:24.332Z,97785.76
2019-04-16T13:14:13.969Z,97790.77
2019-04-16T13:17:03.567Z,97781.20
2019-04-16T13:19:57.624Z,97782.63
2019-04-16T13:22:34.945Z,97787.33
2019-04-16T13:25:22.019Z,97785.98
2019-04-16T13:27:54.469Z,97778.16
2019-04-16T13:30:26.555Z,97776.59
2019-04-16T13:33:00.003Z,97771.67
2019-04-16T13:35:32.450Z,97768.50
2019-04-16T13:38:08.197Z,97763.16
2019-04-16T13:40:41.392Z,97762.67
2019-04-16T13:43:14.677Z,97767.78
2019-04-16T13:45:46.762Z,97763.41
2019-04-16T13:48:29.954Z,97773.44
2019-04-16T13:51:05.556Z,97777.07
2019-04-16T13:53:49.895Z,97775.72
2019-04-16T13:56:25.482Z,97763.16
2019-04-16T13:59:12.591Z,97763.78
2019-04-16T14:02:17.281Z,97760.70
2019-04-16T14:04:46.510Z,97755.22
2019-04-16T14:07:18.588Z,97755.73
2019-04-16T14:09:50.755Z,97758.61
2019-04-16T14:12:40.859Z,97759.22
2019-04-16T14:14:57.106Z,97763.93
2019-04-16T14:17:30.242Z,97763.56
2019-04-16T14:20:02.625Z,97763.48
2019-04-16T14:22:34.995Z,97766.23
2019-04-16T14:25:08.894Z,97763.60
2019-04-16T14:27:41.758Z,97764.76
2019-04-16T14:30:27.674Z,97761.66
2019-04-16T14:33:00.755Z,97766.88
2019-04-16T14:35:39.946Z,97756.17
2019-04-16T14:38:09.878Z,97759.95
2019-04-16T14:40:43.053Z,97758.73
2019-04-16T14:43:17.740Z,97760.03
2019-04-16T14:45:58.143Z,97754.30
2019-04-16T14:48:26.394Z,97754.95
2019-04-16T14:50:58.936Z,97750.11
2019-04-16T14:53:51.323Z,97754.00
2019-04-16T14:56:29.577Z,97756.12
2019-04-16T14:59:34.126Z,97751.45
2019-04-16T15:02:06.534Z,97751.66
2019-04-16T15:04:57.811Z,97756.30
2019-04-16T15:08:00.094Z,97751.87
2019-04-16T15:10:53.226Z,97756.69
2019-04-16T15:13:53.127Z,97762.00
2019-04-16T15:16:40.682Z,97765.61
2019-04-16T15:19:31.236Z,97767.95
2019-04-16T15:22:21.095Z,97771.47
2019-04-16T15:25:24.603Z,97769.89
2019-04-16T15:28:15.060Z,97764.66
2019-04-16T15:31:00.677Z,97766.66
2019-04-16T15:33:44.501Z,97772.09
2019-04-16T15:36:25.698Z,97771.12
2019-04-16T15:39:12.673Z,97778.80
2019-04-16T15:42:02.162Z,97777.56
2019-04-16T15:44:52.719Z,97777.94
2019-04-16T15:47:46.969Z,97777.76
2019-04-16T15:50:37.924Z,97773.67
2019-04-16T15:53:20.309Z,97775.13
2019-04-16T15:56:10.548Z,97776.31
2019-04-16T15:58:58.705Z,97773.23
2019-04-16T16:02:02.261Z,97777.72
2019-04-16T16:04:40.633Z,97774.67
2019-04-16T16:07:15.743Z,97777.64
2019-04-16T16:10:13.757Z,97777.63
2019-04-16T16:12:44.098Z,97782.20
2019-04-16T16:15:16.252Z,97782.07
2019-04-16T16:17:49.660Z,97780.77
2019-04-16T16:20:22.792Z,97782.41
2019-04-16T16:22:58.148Z,97787.80
2019-04-16T16:25:29.276Z,97788.77
2019-04-16T16:28:01.366Z,97795.27
2019-04-16T16:30:33.958Z,97800.16
2019-04-16T16:33:06.154Z,97798.05
2019-04-16T16:35:38.283Z,97796.23
2019-04-16T16:38:13.923Z,97803.08
2019-04-16T16:40:49.452Z,97806.98
2019-04-16T16:43:20.271Z,97802.39
2019-04-16T16:46:03.581Z,97806.75
2019-04-16T16:48:36.552Z,97807.55
2019-04-16T16:51:08.769Z,97807.38
2019-04-16T16:53:52.135Z,97811.77
2019-04-16T16:56:31.338Z,97815.81
2019-04-16T16:59:08.142Z,97816.64
2019-04-16T17:01:56.209Z,97815.66
2019-04-16T17:04:34.923Z,97815.47
2019-04-16T17:07:07.795Z,97819.50
2019-04-16T17:09:39.913Z,97817.18
2019-04-16T17:12:12.357Z,97818.30
2019-04-16T17:14:44.614Z,97818.23
2019-04-16T17:17:17.687Z,97821.66
2019-04-16T17:19:50.893Z,97829.23
2019-04-16T17:22:23.704Z,97828.83
2019-04-16T17:24:56.438Z,97834.73
2019-04-16T17:27:28.946Z,97835.05
2019-04-16T17:30:01.030Z,97832.29
2019-04-16T17:32:33.141Z,97839.73
2019-04-16T17:35:07.614Z,97843.55
2019-04-16T17:37:39.871Z,97843.50
2019-04-16T17:40:22.768Z,97842.47
2019-04-16T17:42:59.323Z,97850.56
2019-04-16T17:45:48.810Z,97852.47
2019-04-16T17:48:37.026Z,97852.69
2019-04-16T17:51:36.930Z,97857.43
2019-04-16T17:54:20.756Z,97861.36
2019-04-16T17:57:10.050Z,97865.48
2019-04-16T17:59:49.259Z,97869.56
2019-04-16T18:02:38.472Z,97875.56
2019-04-16T18:05:29.766Z,97877.31
2019-04-16T18:08:19.678Z,97884.78
2019-04-16T18:10:55.973Z,97893.85
2019-04-16T18:13:47.665Z,97899.91
2019-04-16T18:16:23.951Z,97901.88
2019-04-16T18:19:24.696Z,97909.17
2019-04-16T18:22:06.833Z,97912.99
2019-04-16T18:25:06.708Z,97920.09
2019-04-16T18:27:42.410Z,97922.06
2019-04-16T18:30:32.287Z,97922.82
2019-04-16T18:33:32.186Z,97922.52
2019-04-16T18:36:14.156Z,97938.11
2019-04-16T18:39:09.915Z,97938.37
2019-04-16T18:41:55.801Z,97939.62
2019-04-16T18:44:58.994Z,97946.69
2019-04-16T18:47:38.626Z,97957.11
2019-04-16T18:50:15.259Z,97955.95
2019-04-16T18:52:47.342Z,97959.11
2019-04-16T18:55:19.806Z,97961.44
2019-04-16T18:57:52.824Z,97964.34
2019-04-16T19:00:43.523Z,97968.09
2019-04-16T19:03:16.135Z,97969.64
2019-04-16T19:05:48.690Z,97977.12
2019-04-16T19:08:20.872Z,97977.50
2019-04-16T19:10:53.331Z,97985.62
2019-04-16T19:13:26.257Z,97986.14
2019-04-16T19:15:58.795Z,97987.56
2019-04-16T19:18:31.312Z,97991.06
2019-04-16T19:21:03.928Z,97992.39
2019-04-16T19:23:36.385Z,97997.72
2019-04-16T19:26:08.515Z,97997.94
2019-04-16T19:28:45.351Z,98000.39
2019-04-16T19:31:16.361Z,98005.05
2019-04-16T19:33:49.473Z,98005.04
2019-04-16T19:36:25.000Z,98008.16
2019-04-16T19:38:56.698Z,98010.52
2019-04-16T19:41:30.249Z,98012.91
2019-04-16T19:44:06.348Z,98012.45
2019-04-16T19:46:37.304Z,98017.03
2019-04-16T19:49:09.715Z,98020.59
2019-04-16T19:51:42.684Z,98019.52
2019-04-16T19:54:15.201Z,98027.20
2019-04-16T19:56:51.406Z,98027.66
2019-04-16T19:59:24.068Z,98024.86
2019-04-16T20:01:59.811Z,98028.52
2019-04-16T20:04:30.830Z,98028.20
2019-04-16T20:07:03.578Z,98030.26
2019-04-16T20:09:38.918Z,98034.14
2019-04-16T20:12:09.806Z,98030.38
2019-04-16T20:14:41.822Z,98032.48
2019-04-16T20:17:15.020Z,98033.94
2019-04-16T20:20:01.033Z,98035.23
2019-04-16T20:22:33.884Z,98034.74
2019-04-16T20:25:07.236Z,98038.53
2019-04-16T20:27:40.584Z,98036.95
2019-04-16T20:30:15.068Z,98039.45
2019-04-16T20:32:48.179Z,98038.33
2019-04-16T20:35:20.253Z,98035.53
2019-04-16T20:37:54.343Z,98035.97
2019-04-16T20:40:26.127Z,98039.61
2019-04-16T20:42:58.711Z,98039.04
2019-04-16T20:45:30.908Z,98040.41
2019-04-16T20:48:03.212Z,98038.04
2019-04-16T20:50:35.558Z,98042.71
2019-04-16T20:53:09.294Z,98041.39
2019-04-16T20:55:47.211Z,98047.11
2019-04-16T20:58:16.079Z,98046.30
2019-04-16T21:00:50.410Z,98051.05
2019-04-16T21:03:23.707Z,98052.59
2019-04-16T21:05:58.925Z,98047.43
2019-04-16T21:08:31.095Z,98046.30
2019-04-16T21:11:07.664Z,98053.35
2019-04-16T21:13:37.234Z,98056.70
2019-04-16T21:16:10.174Z,98055.81
2019-04-16T21:18:43.155Z,98058.70
2019-04-16T21:21:15.649Z,98060.59
2019-04-16T21:23:48.198Z,98056.28
2019-04-16T21:26:20.286Z,98058.05
2019-04-16T21:29:02.224Z,98063.77
2019-04-16T21:31:42.381Z,98065.17
2019-04-16T21:34:17.775Z,98061.19
2019-04-16T21:37:10.625Z,98068.31
2019-04-16T21:39:53.437Z,98067.67
2019-04-16T21:42:26.272Z,98072.84
2019-04-16T21:44:58.705Z,98070.95
2019-04-16T21:47:30.887Z,98072.52
2019-04-16T21:50:04.250Z,98076.09
2019-04-16T21:52:36.707Z,98074.56
2019-04-16T21:55:09.677Z,98072.43
2019-04-16T21:57:42.789Z,98075.56
2019-04-16T22:00:34.735Z,98079.36
2019-04-16T22:03:10.732Z,98082.53
2019-04-16T22:05:48.135Z,98078.66
2019-04-16T22:08:16.850Z,98082.18
2019-04-16T22:10:48.971Z,98087.77
2019-04-16T22:13:21.797Z,98092.83
2019-04-16T22:15:57.247Z,98092.34
2019-04-16T22:18:28.283Z,98097.48
2019-04-16T22:21:00.938Z,98104.02
2019-04-16T22:23:33.439Z,98104.53
2019-04-16T22:26:09.576Z,98106.02
2019-04-16T22:28:44.162Z,98106.30
2019-04-16T22:31:13.873Z,98108.72
2019-04-16T22:33:45.951Z,98107.09
2019-04-16T22:36:18.065Z,98110.48
2019-04-16T22:38:54.204Z,98114.56
2019-04-16T22:41:58.371Z,98114.37
2019-04-16T22:44:49.331Z,98118.41
2019-04-16T22:47:26.054Z,98117.33
2019-04-16T22:50:14.080Z,98119.84
2019-04-16T22:52:32.073Z,98126.55
2019-04-16T22:55:04.566Z,98120.47
2019-04-16T22:57:37.004Z,98122.50
2019-04-16T23:00:17.486Z,98133.97
2019-04-16T23:02:50.038Z,98133.14
2019-04-16T23:05:22.126Z,98129.33
2019-04-16T23:07:54.666Z,98136.20
2019-04-16T23:10:26.756Z,98145.11
2019-04-16T23:13:00.360Z,98137.31
2019-04-16T23:15:34.093Z,98139.23
2019-04-16T23:18:06.325Z,98145.05
2019-04-16T23:20:39.857Z,98142.42
2019-04-16T23:23:11.822Z,98140.67
2019-04-16T23:25:44.174Z,98138.80
2019-04-16T23:28:16.566Z,98139.22
2019-04-16T23:30:51.118Z,98136.59
2019-04-16T23:33:22.987Z,98141.52
2019-04-16T23:35:55.243Z,98141.20
2019-04-16T23:38:31.190Z,98141.15
2019-04-16T23:41:01.588Z,98140.40
2019-04-16T23:43:43.786Z,98145.52
2019-04-16T23:46:31.458Z,98151.40
2019-04-16T23:49:37.225Z,98151.20
2019-04-16T23:52:12.701Z,98147.85
2019-04-16T23:55:06.815Z,98149.55
2019-04-16T23:57:58.166Z,98149.20
